Terminal Aerodrome Forecast
Issued by NWS

Current Version | Previous Version | Text Only | Print | Product List | Glossary Off
Versions: 1 2 3 4 5 6 7 8 9 10 11 12 13 14 15 16 17 18 19 20

760
FTUS41 KILN 242059 AAA
TAFLCK
TAF AMD
KLCK 242059Z 2421/2518 35007KT P6SM VCSH SCT045
      TEMPO 2422/2424 4SM -SHRA BKN035
     FM250100 VRB03KT P6SM SCT150 BKN250
      TEMPO 2509/2512 5SM BR
     FM251300 21005KT P6SM BKN250
     FM251600 24007KT P6SM VCTS BKN040CB=

USA.gov is the U.S. government's official web portal to all federal, state and local government web resources and services.